Scotter, United Kingdom
Current Conditions -  °F | °C
As of 8:50 PM on Friday 31 Oct 2014 (Local Time) from EGCN Reporting Station
Clear Clear  
Wind Chill: 63°   Ceiling: Unl
Heat Index: 63°   Visibility: 6mi
Dew Point: 55°   Wind: 13mph
Humidity: 77%   Direction: 160°SSE
Pressure: 29.85"   Gusts: NA
Location:  53.5°N, 0.67°W
Report Text: EGCN 312050Z 16011KT CAVOK 17/13 Q1011
Loading
Personal Weather Stations






























Interactive Weather Map
Tropical Storm Tracking
New forecast layout! Learn more

10-Day Weather Forecast

Advertisements
Track Severe Weather on mobile